sensor_id;sensor_type;location;lat;lon;timestamp;pressure;altitude;pressure_sealevel;temperature;humidity
69239;BME280;56349;51.816;-0.026;2023-05-12T00:01:14;101369.60;;;23.14;34.42
69239;BME280;56349;51.816;-0.026;2023-05-12T00:03:40;101369.13;;;23.11;34.50
69239;BME280;56349;51.816;-0.026;2023-05-12T00:06:06;101375.45;;;23.13;34.47
69239;BME280;56349;51.816;-0.026;2023-05-12T00:08:30;101377.60;;;23.31;34.51
69239;BME280;56349;51.816;-0.026;2023-05-12T00:10:56;101379.53;;;23.25;34.56
69239;BME280;56349;51.816;-0.026;2023-05-12T00:13:22;101377.92;;;23.20;34.63
69239;BME280;56349;51.816;-0.026;2023-05-12T00:15:49;101375.96;;;23.14;34.69
69239;BME280;56349;51.816;-0.026;2023-05-12T00:18:14;101376.75;;;22.87;34.77
69239;BME280;56349;51.816;-0.026;2023-05-12T00:20:40;101380.17;;;23.05;34.80
69239;BME280;56349;51.816;-0.026;2023-05-12T00:23:06;101378.43;;;23.01;34.85
69239;BME280;56349;51.816;-0.026;2023-05-12T00:25:32;101373.37;;;22.96;34.90
69239;BME280;56349;51.816;-0.026;2023-05-12T00:27:57;101374.56;;;22.92;34.97
69239;BME280;56349;51.816;-0.026;2023-05-12T00:30:23;101374.22;;;22.89;34.99
69239;BME280;56349;51.816;-0.026;2023-05-12T00:32:49;101373.21;;;22.88;35.01
69239;BME280;56349;51.816;-0.026;2023-05-12T00:35:15;101370.37;;;22.86;35.04
69239;BME280;56349;51.816;-0.026;2023-05-12T00:37:40;101371.29;;;22.83;35.08
69239;BME280;56349;51.816;-0.026;2023-05-12T00:40:07;101373.19;;;22.81;35.12
69239;BME280;56349;51.816;-0.026;2023-05-12T00:42:33;101378.82;;;22.56;35.16
69239;BME280;56349;51.816;-0.026;2023-05-12T00:44:58;101380.87;;;22.79;35.16
69239;BME280;56349;51.816;-0.026;2023-05-12T00:47:24;101381.12;;;22.79;35.15
69239;BME280;56349;51.816;-0.026;2023-05-12T00:49:50;101383.99;;;22.77;35.19
69239;BME280;56349;51.816;-0.026;2023-05-12T00:52:16;101384.15;;;22.73;35.23
69239;BME280;56349;51.816;-0.026;2023-05-12T00:54:42;101384.72;;;22.70;35.26
69239;BME280;56349;51.816;-0.026;2023-05-12T00:57:07;101386.16;;;22.67;35.32
69239;BME280;56349;51.816;-0.026;2023-05-12T00:59:33;101389.12;;;22.64;35.35
69239;BME280;56349;51.816;-0.026;2023-05-12T01:01:59;101392.20;;;22.60;35.40
69239;BME280;56349;51.816;-0.026;2023-05-12T01:04:25;101395.39;;;22.57;35.45
69239;BME280;56349;51.816;-0.026;2023-05-12T01:06:54;101393.76;;;22.53;35.49
69239;BME280;56349;51.816;-0.026;2023-05-12T01:09:16;101395.81;;;22.51;35.52
69239;BME280;56349;51.816;-0.026;2023-05-12T01:11:41;101400.06;;;22.51;35.53
69239;BME280;56349;51.816;-0.026;2023-05-12T01:14:07;101404.76;;;22.48;35.58
69239;BME280;56349;51.816;-0.026;2023-05-12T01:16:35;101406.32;;;22.93;35.62
69239;BME280;56349;51.816;-0.026;2023-05-12T01:19:00;101409.97;;;22.68;35.65
69239;BME280;56349;51.816;-0.026;2023-05-12T01:21:24;101411.71;;;22.39;35.68
69239;BME280;56349;51.816;-0.026;2023-05-12T01:23:57;101412.59;;;22.38;35.72
69239;BME280;56349;51.816;-0.026;2023-05-12T01:26:15;101410.40;;;22.38;35.73
69239;BME280;56349;51.816;-0.026;2023-05-12T01:28:42;101414.20;;;22.84;35.75
69239;BME280;56349;51.816;-0.026;2023-05-12T01:31:08;101418.17;;;22.57;35.81
69239;BME280;56349;51.816;-0.026;2023-05-12T01:33:33;101420.61;;;22.29;35.84
69239;BME280;56349;51.816;-0.026;2023-05-12T01:35:58;101418.82;;;22.27;35.86
69239;BME280;56349;51.816;-0.026;2023-05-12T01:38:25;101425.19;;;22.24;35.89
69239;BME280;56349;51.816;-0.026;2023-05-12T01:40:50;101423.77;;;22.23;35.91
69239;BME280;56349;51.816;-0.026;2023-05-12T01:43:16;101426.38;;;22.23;35.93
69239;BME280;56349;51.816;-0.026;2023-05-12T01:45:42;101423.73;;;22.51;35.92
69239;BME280;56349;51.816;-0.026;2023-05-12T01:48:08;101420.49;;;22.19;35.97
69239;BME280;56349;51.816;-0.026;2023-05-12T01:50:34;101427.17;;;22.18;35.99
69239;BME280;56349;51.816;-0.026;2023-05-12T01:53:00;101430.68;;;22.66;36.01
69239;BME280;56349;51.816;-0.026;2023-05-12T01:55:26;101436.20;;;22.15;36.03
69239;BME280;56349;51.816;-0.026;2023-05-12T01:57:51;101438.35;;;22.63;36.06
69239;BME280;56349;51.816;-0.026;2023-05-12T02:00:18;101441.91;;;22.14;36.05
69239;BME280;56349;51.816;-0.026;2023-05-12T02:02:44;101445.50;;;22.63;36.06
69239;BME280;56349;51.816;-0.026;2023-05-12T02:05:10;101447.12;;;22.39;36.08
69239;BME280;56349;51.816;-0.026;2023-05-12T02:07:35;101446.87;;;22.10;36.10
69239;BME280;56349;51.816;-0.026;2023-05-12T02:10:01;101448.69;;;22.08;36.14
69239;BME280;56349;51.816;-0.026;2023-05-12T02:12:27;101447.80;;;22.06;36.15
69239;BME280;56349;51.816;-0.026;2023-05-12T02:14:53;101448.00;;;22.06;36.17
69239;BME280;56349;51.816;-0.026;2023-05-12T02:17:19;101451.25;;;22.05;36.19
69239;BME280;56349;51.816;-0.026;2023-05-12T02:19:45;101452.76;;;22.04;36.20
69239;BME280;56349;51.816;-0.026;2023-05-12T02:22:11;101452.01;;;22.30;36.22
69239;BME280;56349;51.816;-0.026;2023-05-12T02:24:38;101452.15;;;22.29;36.23
69239;BME280;56349;51.816;-0.026;2023-05-12T02:27:03;101452.45;;;22.09;36.16
69239;BME280;56349;51.816;-0.026;2023-05-12T02:29:27;101451.27;;;22.10;36.14
69239;BME280;56349;51.816;-0.026;2023-05-12T02:31:53;101450.39;;;22.57;36.16
69239;BME280;56349;51.816;-0.026;2023-05-12T02:34:19;101455.36;;;22.52;36.22
69239;BME280;56349;51.816;-0.026;2023-05-12T02:36:45;101459.50;;;22.49;36.27
69239;BME280;56349;51.816;-0.026;2023-05-12T02:39:11;101461.39;;;21.98;36.29
69239;BME280;56349;51.816;-0.026;2023-05-12T02:41:37;101459.91;;;22.25;36.30
69239;BME280;56349;51.816;-0.026;2023-05-12T02:44:02;101462.14;;;22.46;36.30
69239;BME280;56349;51.816;-0.026;2023-05-12T02:46:28;101462.76;;;22.43;36.34
69239;BME280;56349;51.816;-0.026;2023-05-12T02:48:54;101465.03;;;22.41;36.37
69239;BME280;56349;51.816;-0.026;2023-05-12T02:51:20;101464.65;;;22.39;36.38
69239;BME280;56349;51.816;-0.026;2023-05-12T02:53:46;101464.41;;;22.38;36.40
69239;BME280;56349;51.816;-0.026;2023-05-12T02:56:12;101464.67;;;22.37;36.41
69239;BME280;56349;51.816;-0.026;2023-05-12T02:58:38;101467.11;;;22.34;36.44
69239;BME280;56349;51.816;-0.026;2023-05-12T03:01:04;101467.50;;;21.85;36.43
69239;BME280;56349;51.816;-0.026;2023-05-12T03:03:29;101472.30;;;22.11;36.43
69239;BME280;56349;51.816;-0.026;2023-05-12T03:05:54;101474.83;;;22.11;36.44
69239;BME280;56349;51.816;-0.026;2023-05-12T03:08:20;101476.21;;;22.11;36.45
69239;BME280;56349;51.816;-0.026;2023-05-12T03:10:46;101481.56;;;22.31;36.47
69239;BME280;56349;51.816;-0.026;2023-05-12T03:13:12;101485.37;;;22.08;36.49
69239;BME280;56349;51.816;-0.026;2023-05-12T03:15:38;101485.48;;;22.30;36.49
69239;BME280;56349;51.816;-0.026;2023-05-12T03:18:04;101486.56;;;22.30;36.47
69239;BME280;56349;51.816;-0.026;2023-05-12T03:20:29;101488.12;;;22.29;36.49
69239;BME280;56349;51.816;-0.026;2023-05-12T03:22:55;101490.21;;;22.26;36.51
69239;BME280;56349;51.816;-0.026;2023-05-12T03:25:20;101489.28;;;22.24;36.55
69239;BME280;56349;51.816;-0.026;2023-05-12T03:27:46;101489.48;;;22.24;36.55
69239;BME280;56349;51.816;-0.026;2023-05-12T03:30:13;101495.15;;;22.23;36.58
69239;BME280;56349;51.816;-0.026;2023-05-12T03:32:38;101495.99;;;22.25;36.67
69239;BME280;56349;51.816;-0.026;2023-05-12T03:35:03;101499.33;;;21.84;36.74
69239;BME280;56349;51.816;-0.026;2023-05-12T03:37:28;101501.84;;;21.95;36.74
69239;BME280;56349;51.816;-0.026;2023-05-12T03:39:53;101496.56;;;22.11;36.66
69239;BME280;56349;51.816;-0.026;2023-05-12T03:42:19;101502.08;;;22.32;36.52
69239;BME280;56349;51.816;-0.026;2023-05-12T03:44:45;101501.97;;;22.57;36.29
69239;BME280;56349;51.816;-0.026;2023-05-12T03:47:11;101505.85;;;22.57;36.02
69239;BME280;56349;51.816;-0.026;2023-05-12T03:49:37;101506.12;;;22.99;35.75
69239;BME280;56349;51.816;-0.026;2023-05-12T03:52:03;101504.02;;;22.90;35.50
69239;BME280;56349;51.816;-0.026;2023-05-12T03:54:28;101507.22;;;22.74;35.30
69239;BME280;56349;51.816;-0.026;2023-05-12T03:56:54;101507.99;;;23.29;35.12
69239;BME280;56349;51.816;-0.026;2023-05-12T03:59:20;101507.37;;;22.81;35.01
69239;BME280;56349;51.816;-0.026;2023-05-12T04:01:46;101510.37;;;23.31;34.92
69239;BME280;56349;51.816;-0.026;2023-05-12T04:04:11;101511.63;;;22.79;34.86
69239;BME280;56349;51.816;-0.026;2023-05-12T04:06:37;101512.31;;;23.24;34.84
69239;BME280;56349;51.816;-0.026;2023-05-12T04:09:03;101515.23;;;22.97;34.82
69239;BME280;56349;51.816;-0.026;2023-05-12T04:11:29;101516.16;;;23.11;34.86
69239;BME280;56349;51.816;-0.026;2023-05-12T04:13:55;101521.70;;;23.04;34.91
69239;BME280;56349;51.816;-0.026;2023-05-12T04:16:21;101520.21;;;22.98;34.92
69239;BME280;56349;51.816;-0.026;2023-05-12T04:18:46;101523.36;;;22.92;34.95
69239;BME280;56349;51.816;-0.026;2023-05-12T04:21:12;101523.57;;;22.62;35.01
69239;BME280;56349;51.816;-0.026;2023-05-12T04:23:38;101526.21;;;22.76;35.08
69239;BME280;56349;51.816;-0.026;2023-05-12T04:26:04;101524.31;;;22.68;35.13
69239;BME280;56349;51.816;-0.026;2023-05-12T04:28:30;101524.88;;;22.61;35.21
69239;BME280;56349;51.816;-0.026;2023-05-12T04:31:00;101528.57;;;22.55;35.27
69239;BME280;56349;51.816;-0.026;2023-05-12T04:33:26;101529.97;;;22.49;35.35
69239;BME280;56349;51.816;-0.026;2023-05-12T04:35:47;101529.47;;;22.45;35.39
69239;BME280;56349;51.816;-0.026;2023-05-12T04:38:13;101529.77;;;22.40;35.43
69239;BME280;56349;51.816;-0.026;2023-05-12T04:40:39;101528.65;;;22.35;35.49
69239;BME280;56349;51.816;-0.026;2023-05-12T04:43:05;101529.76;;;22.29;35.56
69239;BME280;56349;51.816;-0.026;2023-05-12T04:45:31;101527.41;;;22.57;35.55
69239;BME280;56349;51.816;-0.026;2023-05-12T04:47:57;101531.28;;;22.25;35.58
69239;BME280;56349;51.816;-0.026;2023-05-12T04:50:23;101536.62;;;22.20;35.63
69239;BME280;56349;51.816;-0.026;2023-05-12T04:52:49;101538.29;;;22.41;35.70
69239;BME280;56349;51.816;-0.026;2023-05-12T04:55:14;101537.40;;;22.09;35.77
69239;BME280;56349;51.816;-0.026;2023-05-12T04:57:40;101539.92;;;22.50;35.84
69239;BME280;56349;51.816;-0.026;2023-05-12T05:00:07;101542.81;;;21.96;35.91
69239;BME280;56349;51.816;-0.026;2023-05-12T05:02:32;101543.67;;;21.93;35.96
69239;BME280;56349;51.816;-0.026;2023-05-12T05:04:58;101547.78;;;21.89;36.00
69239;BME280;56349;51.816;-0.026;2023-05-12T05:07:24;101550.47;;;22.17;36.03
69239;BME280;56349;51.816;-0.026;2023-05-12T05:09:49;101548.13;;;21.87;36.05
69239;BME280;56349;51.816;-0.026;2023-05-12T05:12:15;101549.35;;;22.31;36.11
69239;BME280;56349;51.816;-0.026;2023-05-12T05:14:41;101552.33;;;22.04;36.16
69239;BME280;56349;51.816;-0.026;2023-05-12T05:17:07;101554.31;;;22.22;36.22
69239;BME280;56349;51.816;-0.026;2023-05-12T05:19:33;101555.75;;;21.72;36.23
69239;BME280;56349;51.816;-0.026;2023-05-12T05:21:59;101556.75;;;22.19;36.25
69239;BME280;56349;51.816;-0.026;2023-05-12T05:24:25;101558.17;;;22.18;36.28
69239;BME280;56349;51.816;-0.026;2023-05-12T05:26:51;101561.13;;;22.16;36.30
69239;BME280;56349;51.816;-0.026;2023-05-12T05:29:17;101564.54;;;21.64;36.34
69239;BME280;56349;51.816;-0.026;2023-05-12T05:31:42;101569.48;;;22.09;36.39
69239;BME280;56349;51.816;-0.026;2023-05-12T05:34:08;101570.00;;;22.08;36.40
69239;BME280;56349;51.816;-0.026;2023-05-12T05:36:34;101575.44;;;22.08;36.41
69239;BME280;56349;51.816;-0.026;2023-05-12T05:39:00;101573.51;;;22.05;36.45
69239;BME280;56349;51.816;-0.026;2023-05-12T05:41:26;101579.18;;;22.02;36.49
69239;BME280;56349;51.816;-0.026;2023-05-12T05:43:52;101579.23;;;21.99;36.54
69239;BME280;56349;51.816;-0.026;2023-05-12T05:46:18;101581.16;;;21.97;36.56
69239;BME280;56349;51.816;-0.026;2023-05-12T05:48:44;101588.74;;;21.76;36.56
69239;BME280;56349;51.816;-0.026;2023-05-12T05:51:09;101588.85;;;21.97;36.56
69239;BME280;56349;51.816;-0.026;2023-05-12T05:53:35;101591.34;;;21.97;36.56
69239;BME280;56349;51.816;-0.026;2023-05-12T05:56:01;101591.74;;;21.46;36.58
69239;BME280;56349;51.816;-0.026;2023-05-12T05:58:27;101589.85;;;21.95;36.59
69239;BME280;56349;51.816;-0.026;2023-05-12T06:00:53;101597.49;;;21.98;36.57
69239;BME280;56349;51.816;-0.026;2023-05-12T06:03:19;101598.71;;;21.99;36.54
69239;BME280;56349;51.816;-0.026;2023-05-12T06:05:45;101598.21;;;21.99;36.55
69239;BME280;56349;51.816;-0.026;2023-05-12T06:08:11;101599.98;;;21.98;36.55
69239;BME280;56349;51.816;-0.026;2023-05-12T06:10:37;101598.45;;;21.71;36.60
69239;BME280;56349;51.816;-0.026;2023-05-12T06:13:03;101602.15;;;21.90;36.64
69239;BME280;56349;51.816;-0.026;2023-05-12T06:15:29;101603.59;;;21.91;36.64
69239;BME280;56349;51.816;-0.026;2023-05-12T06:17:55;101608.95;;;21.90;36.64
69239;BME280;56349;51.816;-0.026;2023-05-12T06:20:21;101606.51;;;21.87;36.69
69239;BME280;56349;51.816;-0.026;2023-05-12T06:22:49;101605.56;;;21.85;36.72
69239;BME280;56349;51.816;-0.026;2023-05-12T06:25:12;101607.16;;;21.85;36.71
69239;BME280;56349;51.816;-0.026;2023-05-12T06:27:38;101605.07;;;21.84;36.72
69239;BME280;56349;51.816;-0.026;2023-05-12T06:30:05;101606.17;;;21.61;36.74
69239;BME280;56349;51.816;-0.026;2023-05-12T06:32:30;101608.81;;;21.83;36.75
69239;BME280;56349;51.816;-0.026;2023-05-12T06:34:56;101617.73;;;21.82;36.75
69239;BME280;56349;51.816;-0.026;2023-05-12T06:37:22;101622.84;;;21.82;36.76
69239;BME280;56349;51.816;-0.026;2023-05-12T06:39:47;101617.93;;;21.81;36.78
69239;BME280;56349;51.816;-0.026;2023-05-12T06:42:13;101624.63;;;21.81;36.79
69239;BME280;56349;51.816;-0.026;2023-05-12T06:44:39;101621.92;;;21.80;36.80
69239;BME280;56349;51.816;-0.026;2023-05-12T06:47:05;101624.15;;;21.81;36.80
69239;BME280;56349;51.816;-0.026;2023-05-12T06:49:31;101624.88;;;21.81;36.79
69239;BME280;56349;51.816;-0.026;2023-05-12T06:51:57;101625.25;;;21.80;36.83
69239;BME280;56349;51.816;-0.026;2023-05-12T06:54:23;101622.86;;;21.79;36.84
69239;BME280;56349;51.816;-0.026;2023-05-12T06:56:49;101623.88;;;21.80;36.84
69239;BME280;56349;51.816;-0.026;2023-05-12T06:59:15;101625.33;;;21.77;36.87
69239;BME280;56349;51.816;-0.026;2023-05-12T07:01:41;101623.59;;;21.57;36.88
69239;BME280;56349;51.816;-0.026;2023-05-12T07:04:06;101627.32;;;21.80;36.86
69239;BME280;56349;51.816;-0.026;2023-05-12T07:06:33;101625.27;;;21.81;36.87
69239;BME280;56349;51.816;-0.026;2023-05-12T07:08:58;101626.96;;;21.59;36.87
69239;BME280;56349;51.816;-0.026;2023-05-12T07:11:23;101626.45;;;22.03;36.87
69239;BME280;56349;51.816;-0.026;2023-05-12T07:13:50;101630.48;;;21.82;36.87
69239;BME280;56349;51.816;-0.026;2023-05-12T07:16:16;101631.26;;;21.80;36.88
69239;BME280;56349;51.816;-0.026;2023-05-12T07:18:41;101631.56;;;21.59;36.89
69239;BME280;56349;51.816;-0.026;2023-05-12T07:21:06;101630.57;;;21.82;36.88
69239;BME280;56349;51.816;-0.026;2023-05-12T07:23:32;101631.02;;;21.59;36.88
69239;BME280;56349;51.816;-0.026;2023-05-12T07:25:57;101629.44;;;22.04;36.89
69239;BME280;56349;51.816;-0.026;2023-05-12T07:28:23;101630.56;;;21.82;36.91
69239;BME280;56349;51.816;-0.026;2023-05-12T07:30:49;101633.33;;;21.82;36.96
69239;BME280;56349;51.816;-0.026;2023-05-12T07:33:15;101638.49;;;21.84;36.95
69239;BME280;56349;51.816;-0.026;2023-05-12T07:35:41;101646.81;;;21.88;36.92
69239;BME280;56349;51.816;-0.026;2023-05-12T07:38:07;101649.36;;;21.73;36.88
69239;BME280;56349;51.816;-0.026;2023-05-12T07:40:33;101649.41;;;22.00;36.90
69239;BME280;56349;51.816;-0.026;2023-05-12T07:42:59;101650.80;;;22.05;36.91
69239;BME280;56349;51.816;-0.026;2023-05-12T07:45:27;101644.48;;;22.09;36.95
69239;BME280;56349;51.816;-0.026;2023-05-12T07:47:51;101646.00;;;21.91;36.96
69239;BME280;56349;51.816;-0.026;2023-05-12T07:50:16;101647.01;;;22.15;37.00
69239;BME280;56349;51.816;-0.026;2023-05-12T07:52:46;101653.16;;;21.69;37.01
69239;BME280;56349;51.816;-0.026;2023-05-12T07:55:08;101653.72;;;22.22;37.05
69239;BME280;56349;51.816;-0.026;2023-05-12T07:57:33;101655.73;;;22.27;37.00
69239;BME280;56349;51.816;-0.026;2023-05-12T07:59:59;101657.32;;;21.84;36.95
69239;BME280;56349;51.816;-0.026;2023-05-12T08:02:24;101656.04;;;22.37;36.96
69239;BME280;56349;51.816;-0.026;2023-05-12T08:04:50;101656.29;;;21.90;36.94
69239;BME280;56349;51.816;-0.026;2023-05-12T08:07:16;101659.17;;;22.42;36.93
69239;BME280;56349;51.816;-0.026;2023-05-12T08:09:42;101655.53;;;22.46;36.92
69239;BME280;56349;51.816;-0.026;2023-05-12T08:12:08;101658.90;;;21.99;36.89
69239;BME280;56349;51.816;-0.026;2023-05-12T08:14:34;101665.91;;;22.50;36.88
69239;BME280;56349;51.816;-0.026;2023-05-12T08:17:01;101664.11;;;22.29;36.88
69239;BME280;56349;51.816;-0.026;2023-05-12T08:19:25;101666.80;;;22.53;36.90
69239;BME280;56349;51.816;-0.026;2023-05-12T08:21:51;101668.00;;;22.54;36.90
69239;BME280;56349;51.816;-0.026;2023-05-12T08:24:17;101665.82;;;22.55;36.89
69239;BME280;56349;51.816;-0.026;2023-05-12T08:26:42;101668.61;;;22.36;36.89
69239;BME280;56349;51.816;-0.026;2023-05-12T08:29:08;101671.36;;;22.36;36.90
69239;BME280;56349;51.816;-0.026;2023-05-12T08:31:34;101668.80;;;22.60;36.89
69239;BME280;56349;51.816;-0.026;2023-05-12T08:34:00;101675.00;;;22.61;36.87
69239;BME280;56349;51.816;-0.026;2023-05-12T08:36:26;101678.36;;;22.12;36.86
69239;BME280;56349;51.816;-0.026;2023-05-12T08:38:52;101672.44;;;22.60;36.94
69239;BME280;56349;51.816;-0.026;2023-05-12T08:41:20;101671.40;;;22.41;37.01
69239;BME280;56349;51.816;-0.026;2023-05-12T08:43:46;101672.14;;;22.47;37.13
69239;BME280;56349;51.816;-0.026;2023-05-12T08:46:10;101675.00;;;22.56;37.30
69239;BME280;56349;51.816;-0.026;2023-05-12T08:48:37;101673.77;;;22.46;37.44
69239;BME280;56349;51.816;-0.026;2023-05-12T08:51:02;101680.79;;;22.70;37.43
69239;BME280;56349;51.816;-0.026;2023-05-12T08:53:27;101683.52;;;22.77;37.27
69239;BME280;56349;51.816;-0.026;2023-05-12T08:55:52;101687.82;;;23.10;37.10
69239;BME280;56349;51.816;-0.026;2023-05-12T08:58:18;101683.09;;;23.43;36.86
69239;BME280;56349;51.816;-0.026;2023-05-12T09:00:43;101681.78;;;23.51;36.58
69239;BME280;56349;51.816;-0.026;2023-05-12T09:03:12;101684.58;;;23.86;36.28
69239;BME280;56349;51.816;-0.026;2023-05-12T09:05:35;101684.00;;;23.79;35.94
69239;BME280;56349;51.816;-0.026;2023-05-12T09:08:00;101684.08;;;23.89;35.60
69239;BME280;56349;51.816;-0.026;2023-05-12T09:10:27;101678.72;;;24.23;35.23
69239;BME280;56349;51.816;-0.026;2023-05-12T09:12:54;101674.87;;;24.81;34.89
69239;BME280;56349;51.816;-0.026;2023-05-12T09:15:21;101677.55;;;24.62;34.58
69239;BME280;56349;51.816;-0.026;2023-05-12T09:17:43;101671.57;;;25.15;34.26
69239;BME280;56349;51.816;-0.026;2023-05-12T09:20:14;101679.73;;;25.19;33.91
69239;BME280;56349;51.816;-0.026;2023-05-12T09:22:34;101676.79;;;25.45;33.48
69239;BME280;56349;51.816;-0.026;2023-05-12T09:25:01;101678.29;;;25.47;33.21
69239;BME280;56349;51.816;-0.026;2023-05-12T09:27:28;101682.63;;;25.68;32.93
69239;BME280;56349;51.816;-0.026;2023-05-12T09:29:53;101681.37;;;25.60;32.71
69239;BME280;56349;51.816;-0.026;2023-05-12T09:32:28;101678.73;;;25.81;32.44
69239;BME280;56349;51.816;-0.026;2023-05-12T09:34:43;101680.22;;;25.99;32.21
69239;BME280;56349;51.816;-0.026;2023-05-12T09:37:09;101679.64;;;26.13;32.03
69239;BME280;56349;51.816;-0.026;2023-05-12T09:39:35;101685.99;;;26.25;31.81
69239;BME280;56349;51.816;-0.026;2023-05-12T09:42:01;101692.63;;;26.33;31.58
69239;BME280;56349;51.816;-0.026;2023-05-12T09:44:27;101689.60;;;26.45;31.51
69239;BME280;56349;51.816;-0.026;2023-05-12T09:46:53;101688.04;;;26.59;31.33
69239;BME280;56349;51.816;-0.026;2023-05-12T09:49:19;101688.26;;;26.70;31.15
69239;BME280;56349;51.816;-0.026;2023-05-12T09:51:44;101689.81;;;26.32;30.98
69239;BME280;56349;51.816;-0.026;2023-05-12T09:54:10;101692.64;;;26.69;30.84
69239;BME280;56349;51.816;-0.026;2023-05-12T09:56:37;101689.30;;;27.00;30.72
69239;BME280;56349;51.816;-0.026;2023-05-12T09:59:03;101689.02;;;26.86;30.53
69239;BME280;56349;51.816;-0.026;2023-05-12T10:01:28;101699.39;;;26.94;30.43
69239;BME280;56349;51.816;-0.026;2023-05-12T10:03:56;101699.68;;;26.74;30.31
69239;BME280;56349;51.816;-0.026;2023-05-12T10:06:24;101700.91;;;27.05;30.20
69239;BME280;56349;51.816;-0.026;2023-05-12T10:08:49;101695.51;;;26.82;30.11
69239;BME280;56349;51.816;-0.026;2023-05-12T10:11:11;101710.60;;;27.37;30.05
69239;BME280;56349;51.816;-0.026;2023-05-12T10:13:37;101696.14;;;26.94;29.94
69239;BME280;56349;51.816;-0.026;2023-05-12T10:16:04;101699.23;;;27.26;29.87
69239;BME280;56349;51.816;-0.026;2023-05-12T10:18:30;101698.43;;;27.04;29.77
69239;BME280;56349;51.816;-0.026;2023-05-12T10:20:55;101695.51;;;27.33;29.68
69239;BME280;56349;51.816;-0.026;2023-05-12T10:23:20;101695.67;;;27.06;29.68
69239;BME280;56349;51.816;-0.026;2023-05-12T10:25:46;101692.66;;;27.34;29.64
69239;BME280;56349;51.816;-0.026;2023-05-12T10:28:11;101693.01;;;27.11;29.58
69239;BME280;56349;51.816;-0.026;2023-05-12T10:30:38;101695.22;;;27.16;29.50
69239;BME280;56349;51.816;-0.026;2023-05-12T10:33:03;101693.98;;;27.23;29.27
69239;BME280;56349;51.816;-0.026;2023-05-12T10:35:32;101689.12;;;27.28;29.23
69239;BME280;56349;51.816;-0.026;2023-05-12T10:37:55;101689.32;;;27.30;29.09
69239;BME280;56349;51.816;-0.026;2023-05-12T10:40:23;101674.62;;;27.30;29.00
69239;BME280;56349;51.816;-0.026;2023-05-12T10:42:49;101675.10;;;27.31;28.95
69239;BME280;56349;51.816;-0.026;2023-05-12T10:45:16;101668.68;;;27.33;28.88
69239;BME280;56349;51.816;-0.026;2023-05-12T10:47:38;101669.32;;;27.34;28.86
69239;BME280;56349;51.816;-0.026;2023-05-12T10:50:04;101666.32;;;27.35;28.80
69239;BME280;56349;51.816;-0.026;2023-05-12T10:52:29;101669.29;;;27.37;28.75
69239;BME280;56349;51.816;-0.026;2023-05-12T10:55:00;101674.14;;;27.39;28.67
69239;BME280;56349;51.816;-0.026;2023-05-12T10:57:21;101666.27;;;27.39;28.62
69239;BME280;56349;51.816;-0.026;2023-05-12T10:59:47;101670.20;;;27.18;28.58
69239;BME280;56349;51.816;-0.026;2023-05-12T11:02:14;101665.33;;;27.40;28.53
69239;BME280;56349;51.816;-0.026;2023-05-12T11:04:39;101666.38;;;27.17;28.49
69239;BME280;56349;51.816;-0.026;2023-05-12T11:07:04;101670.90;;;27.38;28.44
69239;BME280;56349;51.816;-0.026;2023-05-12T11:09:29;101667.37;;;27.37;28.41
69239;BME280;56349;51.816;-0.026;2023-05-12T11:11:55;101657.01;;;27.36;28.38
69239;BME280;56349;51.816;-0.026;2023-05-12T11:14:20;101649.55;;;27.37;28.34
69239;BME280;56349;51.816;-0.026;2023-05-12T11:16:46;101646.22;;;27.16;28.29
69239;BME280;56349;51.816;-0.026;2023-05-12T11:19:12;101646.16;;;27.40;28.25
69239;BME280;56349;51.816;-0.026;2023-05-12T11:21:38;101649.55;;;27.42;28.20
69239;BME280;56349;51.816;-0.026;2023-05-12T11:24:04;101651.07;;;27.41;28.13
69239;BME280;56349;51.816;-0.026;2023-05-12T11:26:29;101656.74;;;27.39;28.12
69239;BME280;56349;51.816;-0.026;2023-05-12T11:28:55;101644.35;;;27.38;28.09
69239;BME280;56349;51.816;-0.026;2023-05-12T11:31:20;101653.12;;;27.36;28.11
69239;BME280;56349;51.816;-0.026;2023-05-12T11:33:45;101665.65;;;27.35;28.07
69239;BME280;56349;51.816;-0.026;2023-05-12T11:36:10;101658.78;;;27.36;28.07
69239;BME280;56349;51.816;-0.026;2023-05-12T11:38:36;101651.42;;;26.91;28.04
69239;BME280;56349;51.816;-0.026;2023-05-12T11:41:02;101656.68;;;27.36;28.02
69239;BME280;56349;51.816;-0.026;2023-05-12T11:43:28;101663.28;;;27.37;27.95
69239;BME280;56349;51.816;-0.026;2023-05-12T11:45:54;101648.33;;;27.39;27.93
69239;BME280;56349;51.816;-0.026;2023-05-12T11:48:20;101631.32;;;27.39;27.88
69239;BME280;56349;51.816;-0.026;2023-05-12T11:50:46;101631.96;;;27.33;27.84
69239;BME280;56349;51.816;-0.026;2023-05-12T11:53:13;101625.74;;;27.24;27.82
69239;BME280;56349;51.816;-0.026;2023-05-12T11:55:37;101622.58;;;27.08;27.85
69239;BME280;56349;51.816;-0.026;2023-05-12T11:58:03;101621.98;;;26.84;27.95
69239;BME280;56349;51.816;-0.026;2023-05-12T12:00:30;101624.24;;;26.85;28.08
69239;BME280;56349;51.816;-0.026;2023-05-12T12:05:19;101630.93;;;26.44;28.44
69239;BME280;56349;51.816;-0.026;2023-05-12T12:07:44;101630.00;;;26.08;28.58
69239;BME280;56349;51.816;-0.026;2023-05-12T12:10:11;101643.60;;;26.22;29.09
69239;BME280;56349;51.816;-0.026;2023-05-12T12:12:36;101647.30;;;25.45;29.47
69239;BME280;56349;51.816;-0.026;2023-05-12T12:15:02;101652.39;;;25.76;29.77
69239;BME280;56349;51.816;-0.026;2023-05-12T12:17:27;101656.85;;;25.68;29.98
69239;BME280;56349;51.816;-0.026;2023-05-12T12:19:53;101654.67;;;25.65;30.21
69239;BME280;56349;51.816;-0.026;2023-05-12T12:22:18;101655.65;;;25.67;30.38
69239;BME280;56349;51.816;-0.026;2023-05-12T12:24:44;101654.87;;;25.80;30.40
69239;BME280;56349;51.816;-0.026;2023-05-12T12:27:10;101654.47;;;25.87;30.43
69239;BME280;56349;51.816;-0.026;2023-05-12T12:29:36;101659.59;;;25.96;30.46
69239;BME280;56349;51.816;-0.026;2023-05-12T12:32:02;101656.07;;;26.07;30.49
69239;BME280;56349;51.816;-0.026;2023-05-12T12:34:28;101656.44;;;25.96;30.43